Time;durP1;ratioP1;P1;durP2;ratioP2;P2;SDS_P1;SDS_P2;PMS_P1;PMS_P2;Temp;Humidity;BMP_temperature;BMP_pressure;BME280_temperature;BME280_humidity;BME280_pressure;Samples;Min_cycle;Max_cycle;Signal;HPM_P1;HPM_P2
2022/09/13 00:00:28;;;;;;;;;2.33;2.33;;;;;;;;5076010;28;45513;-72
2022/09/13 00:02:53;;;;;;;;;6.00;4.00;;;;;;;;5075808;28;45501;-71
2022/09/13 00:05:18;;;;;;;;;5.00;3.00;;;;;;;;5075591;28;45439;-71
2022/09/13 00:07:43;;;;;;;;;4.00;4.00;;;;;;;;5075830;27;46525;-71
2022/09/13 00:10:08;;;;;;;;;3.00;3.00;;;;;;;;5075708;28;45471;-71
2022/09/13 00:12:34;;;;;;;;;2.67;2.00;;;;;;;;5076179;28;45495;-71
2022/09/13 00:14:59;;;;;;;;;3.00;3.00;;;;;;;;5075808;28;45407;-71
2022/09/13 00:17:24;;;;;;;;;4.00;3.00;;;;;;;;5075744;28;47197;-71
2022/09/13 00:19:50;;;;;;;;;2.00;2.00;;;;;;;;5075474;28;45310;-71
2022/09/13 00:22:15;;;;;;;;;2.00;2.00;;;;;;;;5075740;28;45405;-71
2022/09/13 00:24:40;;;;;;;;;1.33;1.33;;;;;;;;5075779;28;45463;-70
2022/09/13 00:27:05;;;;;;;;;3.00;3.00;;;;;;;;5075199;28;47086;-71
2022/09/13 00:29:30;;;;;;;;;3.00;3.00;;;;;;;;5075698;28;45378;-71
2022/09/13 00:31:56;;;;;;;;;2.00;2.00;;;;;;;;5075750;28;45492;-71
2022/09/13 00:34:21;;;;;;;;;4.00;4.00;;;;;;;;5075294;28;45270;-71
2022/09/13 00:36:46;;;;;;;;;3.33;3.33;;;;;;;;5075367;28;45274;-71
2022/09/13 00:39:12;;;;;;;;;2.00;2.00;;;;;;;;5075470;28;45686;-71
2022/09/13 00:41:37;;;;;;;;;3.00;3.00;;;;;;;;5075559;28;45358;-71
2022/09/13 00:44:03;;;;;;;;;3.00;3.00;;;;;;;;5075500;28;45577;-71
2022/09/13 00:46:28;;;;;;;;;3.00;3.00;;;;;;;;5078984;28;45454;-71
2022/09/13 00:48:58;;;;;;;;;5.00;5.00;;;;;;;;5078896;28;45379;-70
2022/09/13 00:51:24;;;;;;;;;2.00;2.00;;;;;;;;5079049;28;45566;-71
2022/09/13 00:53:51;;;;;;;;;3.67;3.67;;;;;;;;5078842;28;45348;-71
2022/09/13 00:56:23;;;;;;;;;2.67;2.00;;;;;;;;5078473;27;46230;-71
2022/09/13 00:58:57;;;;;;;;;3.00;3.00;;;;;;;;5079019;28;45431;-71
2022/09/13 01:01:24;;;;;;;;;2.00;1.67;;;;;;;;5078357;28;45418;-70
2022/09/13 01:03:50;;;;;;;;;3.00;3.00;;;;;;;;5078399;28;45400;-71
2022/09/13 01:06:19;;;;;;;;;2.00;2.00;;;;;;;;5078574;27;46997;-70
2022/09/13 01:08:47;;;;;;;;;3.00;3.00;;;;;;;;5078692;28;45375;-71
2022/09/13 01:11:18;;;;;;;;;2.00;2.00;;;;;;;;5078412;28;45525;-71
2022/09/13 01:13:43;;;;;;;;;4.00;4.00;;;;;;;;5078477;28;45401;-71
2022/09/13 01:16:09;;;;;;;;;3.00;3.00;;;;;;;;5078532;28;46962;-71
2022/09/13 01:18:34;;;;;;;;;3.67;2.00;;;;;;;;5078206;28;45361;-71
2022/09/13 01:21:05;;;;;;;;;3.33;3.33;;;;;;;;5078657;28;45346;-71
2022/09/13 01:23:45;;;;;;;;;3.00;3.00;;;;;;;;5077905;28;45396;-71
2022/09/13 01:26:42;;;;;;;;;2.67;2.67;;;;;;;;5078399;28;45431;-71
2022/09/13 01:29:26;;;;;;;;;1.67;1.67;;;;;;;;5078054;28;45491;-71
2022/09/13 01:32:23;;;;;;;;;2.33;2.33;;;;;;;;5078420;28;46370;-71
2022/09/13 01:34:57;;;;;;;;;2.67;2.67;;;;;;;;4985656;28;45389;-71
2022/09/13 01:37:31;;;;;;;;;1.33;1.33;;;;;;;;4981419;28;46154;-71
2022/09/13 01:40:16;;;;;;;;;3.00;3.00;;;;;;;;4995657;28;45560;-71
2022/09/13 01:42:41;;;;;;;;;3.00;3.00;;;;;;;;4995499;28;45368;-71
2022/09/13 01:45:16;;;;;;;;;2.33;2.33;;;;;;;;4995506;28;45472;-71
2022/09/13 01:47:41;;;;;;;;;3.00;3.00;;;;;;;;4994887;28;46158;-71
2022/09/13 01:50:12;;;;;;;;;3.00;2.00;;;;;;;;4995475;28;45351;-72
2022/09/13 01:52:37;;;;;;;;;3.00;3.00;;;;;;;;4995707;28;45480;-71
2022/09/13 01:55:08;;;;;;;;;3.00;3.00;;;;;;;;4994019;28;45266;-71
2022/09/13 01:57:40;;;;;;;;;2.00;2.00;;;;;;;;4990358;28;45512;-71
2022/09/13 02:00:08;;;;;;;;;5.00;2.00;;;;;;;;4995240;28;45460;-71
2022/09/13 02:02:39;;;;;;;;;3.00;3.00;;;;;;;;4994963;28;45382;-71
2022/09/13 02:05:09;;;;;;;;;2.67;2.67;;;;;;;;4995220;28;45410;-71
2022/09/13 02:07:36;;;;;;;;;2.67;2.67;;;;;;;;4995406;28;47212;-71
2022/09/13 02:10:07;;;;;;;;;3.33;2.00;;;;;;;;5022674;28;45726;-71
2022/09/13 02:12:34;;;;;;;;;3.00;3.00;;;;;;;;5077678;28;45540;-70
2022/09/13 02:15:22;;;;;;;;;3.67;3.00;;;;;;;;5077633;27;45397;-71
2022/09/13 02:17:59;;;;;;;;;2.33;2.33;;;;;;;;5068229;28;46302;-71
2022/09/13 02:20:35;;;;;;;;;2.67;2.67;;;;;;;;5077207;27;45332;-71
2022/09/13 02:23:02;;;;;;;;;2.00;2.00;;;;;;;;5077606;28;45390;-71
2022/09/13 02:25:29;;;;;;;;;2.67;2.67;;;;;;;;5077356;27;45371;-71
2022/09/13 02:27:58;;;;;;;;;4.00;3.00;;;;;;;;5077169;28;46345;-71
2022/09/13 02:30:24;;;;;;;;;3.67;3.67;;;;;;;;5076774;28;45311;-71
2022/09/13 02:32:56;;;;;;;;;2.00;2.00;;;;;;;;5077640;28;45423;-71
2022/09/13 02:35:44;;;;;;;;;2.67;2.00;;;;;;;;5077058;28;45512;-71
2022/09/13 02:38:13;;;;;;;;;3.00;3.00;;;;;;;;5066086;28;46947;-71
2022/09/13 02:40:44;;;;;;;;;4.67;3.00;;;;;;;;5076888;28;45315;-71
2022/09/13 02:43:14;;;;;;;;;3.67;2.67;;;;;;;;5077089;28;45490;-71
2022/09/13 02:45:45;;;;;;;;;3.00;2.00;;;;;;;;5076612;28;45395;-72
2022/09/13 02:48:17;;;;;;;;;2.00;2.00;;;;;;;;5076840;28;46538;-71
2022/09/13 02:50:49;;;;;;;;;2.33;2.33;;;;;;;;5076863;28;45316;-72
2022/09/13 02:53:23;;;;;;;;;3.67;3.00;;;;;;;;5077026;28;45557;-71
2022/09/13 02:55:52;;;;;;;;;3.00;3.00;;;;;;;;5076612;27;45429;-72
2022/09/13 02:58:20;;;;;;;;;2.00;2.00;;;;;;;;5076673;28;46200;-70
2022/09/13 03:00:46;;;;;;;;;2.00;2.00;;;;;;;;5076488;28;45663;-71
2022/09/13 03:03:12;;;;;;;;;2.00;2.00;;;;;;;;5076705;28;45621;-72
2022/09/13 03:05:38;;;;;;;;;2.00;2.00;;;;;;;;5077029;28;45490;-71
2022/09/13 03:08:04;;;;;;;;;2.67;2.67;;;;;;;;5075790;28;46008;-71
2022/09/13 03:10:35;;;;;;;;;2.00;2.00;;;;;;;;5076604;28;45454;-72
2022/09/13 03:13:23;;;;;;;;;2.00;2.00;;;;;;;;5076308;28;45447;-72
2022/09/13 03:15:56;;;;;;;;;2.33;2.33;;;;;;;;5075508;28;45376;-71
2022/09/13 03:18:44;;;;;;;;;3.00;3.00;;;;;;;;5076429;28;45645;-71
2022/09/13 03:21:09;;;;;;;;;2.00;2.00;;;;;;;;5076325;28;45335;-72
2022/09/13 03:24:01;;;;;;;;;3.00;2.00;;;;;;;;5076491;28;45413;-72
2022/09/13 03:26:35;;;;;;;;;2.67;2.00;;;;;;;;5013718;28;45356;-72
2022/09/13 03:29:00;;;;;;;;;2.33;2.33;;;;;;;;5013265;28;46288;-71
2022/09/13 03:31:44;;;;;;;;;2.00;2.00;;;;;;;;5013737;28;45404;-71
2022/09/13 03:34:17;;;;;;;;;3.67;2.00;;;;;;;;5014012;28;45281;-71
2022/09/13 03:36:46;;;;;;;;;2.00;2.00;;;;;;;;5013544;28;45262;-72
2022/09/13 03:39:16;;;;;;;;;4.00;3.00;;;;;;;;5013205;28;46558;-72
2022/09/13 03:41:45;;;;;;;;;1.00;1.00;;;;;;;;5013766;28;45462;-71
2022/09/13 03:44:12;;;;;;;;;2.67;2.67;;;;;;;;5013379;28;45501;-71
2022/09/13 03:46:42;;;;;;;;;4.00;2.00;;;;;;;;5013694;28;45568;-71
2022/09/13 03:49:10;;;;;;;;;4.00;3.00;;;;;;;;5013025;28;47172;-72
2022/09/13 03:51:36;;;;;;;;;2.67;2.67;;;;;;;;5013506;28;45516;-71
2022/09/13 03:54:03;;;;;;;;;3.67;2.33;;;;;;;;5013610;28;45380;-72
2022/09/13 03:56:28;;;;;;;;;2.67;2.67;;;;;;;;5013151;28;45338;-72
2022/09/13 03:58:54;;;;;;;;;3.33;3.33;;;;;;;;5013002;28;45377;-71
2022/09/13 04:01:20;;;;;;;;;3.00;3.00;;;;;;;;5012981;28;45492;-71
2022/09/13 04:03:46;;;;;;;;;1.00;1.00;;;;;;;;5053269;28;45335;-71
2022/09/13 04:06:11;;;;;;;;;1.00;1.00;;;;;;;;5075932;27;45431;-72
2022/09/13 04:08:36;;;;;;;;;4.00;2.00;;;;;;;;5075623;28;46111;-71
2022/09/13 04:11:01;;;;;;;;;3.00;2.00;;;;;;;;5075606;28;45233;-71
2022/09/13 04:13:27;;;;;;;;;2.00;2.00;;;;;;;;5075712;28;45300;-71
2022/09/13 04:15:53;;;;;;;;;3.67;3.00;;;;;;;;5075969;28;45256;-72
2022/09/13 04:18:18;;;;;;;;;2.00;2.00;;;;;;;;5075181;27;47125;-72
2022/09/13 04:20:43;;;;;;;;;2.33;2.33;;;;;;;;5074886;28;45333;-71
2022/09/13 04:23:08;;;;;;;;;2.00;2.00;;;;;;;;5075814;28;45455;-72
2022/09/13 04:25:37;;;;;;;;;3.00;3.00;;;;;;;;5075892;28;45626;-71
2022/09/13 04:28:02;;;;;;;;;2.00;2.00;;;;;;;;5075252;28;46213;-70
2022/09/13 04:30:28;;;;;;;;;2.00;2.00;;;;;;;;5075203;28;45380;-71
2022/09/13 04:32:55;;;;;;;;;2.00;2.00;;;;;;;;5075858;28;45484;-71
2022/09/13 04:35:21;;;;;;;;;2.00;2.00;;;;;;;;5075514;28;45489;-71
2022/09/13 04:37:46;;;;;;;;;3.67;2.67;;;;;;;;5074975;28;45365;-71
2022/09/13 04:40:14;;;;;;;;;2.67;2.67;;;;;;;;5075575;28;45233;-71
2022/09/13 04:42:39;;;;;;;;;2.67;2.67;;;;;;;;5075092;28;45293;-71
2022/09/13 04:45:05;;;;;;;;;1.00;1.00;;;;;;;;5075328;28;45364;-71
2022/09/13 04:47:31;;;;;;;;;3.33;2.67;;;;;;;;5075161;28;46301;-71
2022/09/13 04:49:56;;;;;;;;;2.00;2.00;;;;;;;;5075119;28;45406;-71
2022/09/13 04:52:21;;;;;;;;;3.00;3.00;;;;;;;;5075642;28;45323;-71
2022/09/13 04:54:46;;;;;;;;;2.00;2.00;;;;;;;;5075301;28;45379;-71
2022/09/13 04:57:12;;;;;;;;;2.00;2.00;;;;;;;;5074467;27;47139;-70
2022/09/13 04:59:38;;;;;;;;;3.00;2.00;;;;;;;;5075079;28;45653;-71
2022/09/13 05:02:03;;;;;;;;;1.67;1.67;;;;;;;;5075321;28;45378;-70
2022/09/13 05:04:28;;;;;;;;;2.00;2.00;;;;;;;;5074933;28;45350;-71
2022/09/13 05:06:54;;;;;;;;;3.00;3.00;;;;;;;;5075161;28;46788;-71
2022/09/13 05:09:19;;;;;;;;;2.33;2.33;;;;;;;;5075182;28;45269;-71
2022/09/13 05:11:44;;;;;;;;;4.00;2.67;;;;;;;;5074619;28;45327;-71
2022/09/13 05:14:10;;;;;;;;;1.00;1.00;;;;;;;;5075217;28;45356;-71
2022/09/13 05:16:35;;;;;;;;;2.67;1.00;;;;;;;;5074701;28;45300;-71
2022/09/13 05:19:00;;;;;;;;;2.00;2.00;;;;;;;;5074778;28;45272;-71
2022/09/13 05:21:26;;;;;;;;;1.00;1.00;;;;;;;;5075017;28;45393;-70
2022/09/13 05:23:53;;;;;;;;;2.67;2.67;;;;;;;;5074624;28;45280;-71
2022/09/13 05:26:18;;;;;;;;;2.00;2.00;;;;;;;;5074277;28;46935;-71
2022/09/13 05:28:43;;;;;;;;;2.00;2.00;;;;;;;;5074530;28;45312;-71
2022/09/13 05:31:12;;;;;;;;;2.00;2.00;;;;;;;;5076803;27;45464;-71
2022/09/13 05:33:37;;;;;;;;;1.00;1.00;;;;;;;;5078425;28;45369;-71
2022/09/13 05:36:04;;;;;;;;;2.00;2.00;;;;;;;;5077774;28;46204;-71
2022/09/13 05:38:29;;;;;;;;;1.33;1.33;;;;;;;;5078087;28;45435;-71
2022/09/13 05:40:55;;;;;;;;;2.00;2.00;;;;;;;;5077942;28;45361;-72
2022/09/13 05:43:21;;;;;;;;;2.33;2.33;;;;;;;;5078676;28;45502;-72
2022/09/13 05:45:46;;;;;;;;;3.00;2.00;;;;;;;;5071581;28;46830;-72
2022/09/13 05:48:11;;;;;;;;;3.00;3.00;;;;;;;;5074150;28;45484;-71
2022/09/13 05:50:37;;;;;;;;;2.67;1.00;;;;;;;;5077975;28;45423;-72
2022/09/13 05:53:02;;;;;;;;;2.00;2.00;;;;;;;;5076916;28;46176;-71
2022/09/13 05:55:27;;;;;;;;;1.00;1.00;;;;;;;;5076722;28;47214;-71
2022/09/13 05:57:53;;;;;;;;;2.00;2.00;;;;;;;;5077356;28;45425;-72
2022/09/13 06:00:18;;;;;;;;;1.00;1.00;;;;;;;;5077856;28;45575;-71
2022/09/13 06:02:43;;;;;;;;;1.67;1.67;;;;;;;;5077532;28;45561;-72
2022/09/13 06:05:09;;;;;;;;;3.00;2.00;;;;;;;;5077619;28;46157;-71
2022/09/13 06:07:34;;;;;;;;;2.00;2.00;;;;;;;;5077743;28;45388;-71
2022/09/13 06:10:00;;;;;;;;;1.00;1.00;;;;;;;;5077223;28;45560;-72
2022/09/13 06:12:25;;;;;;;;;2.00;2.00;;;;;;;;5077977;28;45403;-72
2022/09/13 06:14:50;;;;;;;;;2.00;2.00;;;;;;;;5077731;28;46196;-72
2022/09/13 06:17:15;;;;;;;;;2.00;2.00;;;;;;;;5077402;28;45459;-73
2022/09/13 06:19:40;;;;;;;;;2.67;2.67;;;;;;;;5078036;28;45347;-71
2022/09/13 06:22:06;;;;;;;;;4.00;3.00;;;;;;;;5077483;28;45782;-71
2022/09/13 06:24:31;;;;;;;;;2.00;2.00;;;;;;;;5077199;28;45473;-72
2022/09/13 06:26:56;;;;;;;;;2.00;2.00;;;;;;;;5077468;28;45339;-72
2022/09/13 06:29:21;;;;;;;;;1.33;1.33;;;;;;;;5077683;28;45491;-72
2022/09/13 06:31:47;;;;;;;;;4.00;3.00;;;;;;;;5077541;28;45343;-72
2022/09/13 06:34:16;;;;;;;;;2.00;2.00;;;;;;;;5077209;28;46917;-72
2022/09/13 06:36:41;;;;;;;;;1.00;1.00;;;;;;;;5076778;27;45372;-70
2022/09/13 06:39:07;;;;;;;;;2.00;2.00;;;;;;;;5077162;28;45307;-72
2022/09/13 06:41:32;;;;;;;;;2.33;2.00;;;;;;;;5077149;27;45405;-72
2022/09/13 06:43:58;;;;;;;;;1.67;1.67;;;;;;;;5076429;28;45472;-72
2022/09/13 06:46:24;;;;;;;;;1.00;1.00;;;;;;;;5077171;28;45353;-72
2022/09/13 06:48:49;;;;;;;;;1.00;1.00;;;;;;;;5076971;28;45299;-72
2022/09/13 06:51:16;;;;;;;;;2.00;2.00;;;;;;;;5076780;28;45454;-72
2022/09/13 06:53:42;;;;;;;;;2.00;2.00;;;;;;;;5076826;28;46091;-72
2022/09/13 06:56:07;;;;;;;;;2.67;1.00;;;;;;;;5076589;27;45450;-72
2022/09/13 06:58:33;;;;;;;;;3.00;3.00;;;;;;;;5077027;28;45452;-72
2022/09/13 07:01:10;;;;;;;;;1.33;1.33;;;;;;;;5076687;28;45423;-71
2022/09/13 07:03:39;;;;;;;;;3.00;3.00;;;;;;;;5076588;28;47471;-72
2022/09/13 07:06:06;;;;;;;;;3.00;1.33;;;;;;;;5076573;28;45303;-72
2022/09/13 07:08:31;;;;;;;;;3.00;3.00;;;;;;;;5076851;28;45458;-72
2022/09/13 07:10:56;;;;;;;;;2.00;2.00;;;;;;;;5076675;28;45538;-72
2022/09/13 07:13:22;;;;;;;;;2.00;2.00;;;;;;;;5076755;28;46079;-71
2022/09/13 07:15:47;;;;;;;;;2.33;2.33;;;;;;;;5076611;28;45603;-71
2022/09/13 07:18:12;;;;;;;;;2.33;2.33;;;;;;;;5076891;28;45402;-72
2022/09/13 07:20:37;;;;;;;;;1.00;1.00;;;;;;;;5076282;28;45321;-72
2022/09/13 07:23:02;;;;;;;;;1.67;1.67;;;;;;;;5076453;28;47089;-72
2022/09/13 07:25:28;;;;;;;;;1.00;1.00;;;;;;;;5076465;28;45372;-72
2022/09/13 07:27:53;;;;;;;;;2.00;2.00;;;;;;;;5076503;28;45343;-72
2022/09/13 07:30:18;;;;;;;;;1.00;1.00;;;;;;;;5076467;28;45443;-72
2022/09/13 07:32:43;;;;;;;;;3.33;3.33;;;;;;;;5076468;28;46564;-72
2022/09/13 07:35:09;;;;;;;;;2.67;2.67;;;;;;;;5076083;28;45479;-72
2022/09/13 07:37:34;;;;;;;;;2.00;2.00;;;;;;;;5076305;28;45308;-72
2022/09/13 07:39:59;;;;;;;;;3.33;2.33;;;;;;;;5076376;28;45403;-72
2022/09/13 07:42:25;;;;;;;;;2.00;2.00;;;;;;;;5057901;28;47118;-72
2022/09/13 07:44:50;;;;;;;;;3.00;3.00;;;;;;;;5076459;28;45384;-72
2022/09/13 07:47:15;;;;;;;;;2.67;1.67;;;;;;;;5076334;28;45782;-72
2022/09/13 07:49:40;;;;;;;;;3.00;1.33;;;;;;;;5075748;28;45499;-72
2022/09/13 07:52:06;;;;;;;;;2.67;1.33;;;;;;;;5075953;28;46225;-72
2022/09/13 07:54:33;;;;;;;;;2.00;2.00;;;;;;;;5075881;28;45590;-72
2022/09/13 07:56:58;;;;;;;;;1.00;1.00;;;;;;;;5075906;27;45387;-71
2022/09/13 07:59:23;;;;;;;;;2.00;1.33;;;;;;;;5076052;28;45214;-72
2022/09/13 08:01:49;;;;;;;;;2.00;2.00;;;;;;;;5075780;28;45482;-72
2022/09/13 08:04:16;;;;;;;;;1.00;1.00;;;;;;;;5075607;28;45395;-72
2022/09/13 08:06:45;;;;;;;;;2.00;2.00;;;;;;;;5075994;28;45423;-72
2022/09/13 08:09:11;;;;;;;;;3.00;2.00;;;;;;;;5075830;28;45455;-72
2022/09/13 08:11:38;;;;;;;;;2.67;2.67;;;;;;;;5075509;28;47071;-72
2022/09/13 08:14:04;;;;;;;;;2.00;2.00;;;;;;;;5075856;28;45478;-72
2022/09/13 08:16:30;;;;;;;;;2.00;2.00;;;;;;;;5075863;28;45285;-72
2022/09/13 08:18:57;;;;;;;;;3.00;2.00;;;;;;;;5075371;28;45304;-72
2022/09/13 08:21:23;;;;;;;;;2.00;2.00;;;;;;;;5075778;28;46411;-72
2022/09/13 08:23:48;;;;;;;;;3.00;2.00;;;;;;;;5075270;28;45454;-72
2022/09/13 08:26:14;;;;;;;;;2.00;2.00;;;;;;;;5075764;27;45431;-73
2022/09/13 08:28:40;;;;;;;;;1.00;1.00;;;;;;;;5075420;28;45494;-72
2022/09/13 08:31:06;;;;;;;;;1.33;1.33;;;;;;;;5075537;28;47208;-73
2022/09/13 08:33:32;;;;;;;;;3.00;1.00;;;;;;;;5075336;28;45399;-72
2022/09/13 08:35:57;;;;;;;;;1.67;1.67;;;;;;;;5057123;28;45466;-72
2022/09/13 08:38:23;;;;;;;;;2.00;2.00;;;;;;;;5075514;28;45419;-72
2022/09/13 08:40:50;;;;;;;;;2.00;2.00;;;;;;;;5075277;28;46223;-73
2022/09/13 08:43:33;;;;;;;;;1.00;1.00;;;;;;;;5075605;28;45467;-72
2022/09/13 08:46:05;;;;;;;;;2.00;2.00;;;;;;;;5075247;28;45339;-72
2022/09/13 08:48:34;;;;;;;;;2.33;2.33;;;;;;;;5074773;28;45561;-72
2022/09/13 08:51:03;;;;;;;;;3.00;2.67;;;;;;;;5075122;28;47278;-72
2022/09/13 08:53:29;;;;;;;;;2.00;2.00;;;;;;;;5075359;28;45409;-72
2022/09/13 08:56:00;;;;;;;;;1.00;1.00;;;;;;;;5074970;27;45396;-72
2022/09/13 08:58:32;;;;;;;;;1.00;1.00;;;;;;;;5075237;28;45416;-72
2022/09/13 09:01:09;;;;;;;;;1.00;1.00;;;;;;;;5074790;28;47008;-72
2022/09/13 09:03:42;;;;;;;;;1.33;1.33;;;;;;;;5056704;28;46056;-72
2022/09/13 09:06:11;;;;;;;;;1.00;1.00;;;;;;;;5077079;28;45272;-72
2022/09/13 09:08:40;;;;;;;;;1.00;1.00;;;;;;;;5078683;28;45462;-72
2022/09/13 09:11:13;;;;;;;;;2.00;2.00;;;;;;;;5078458;28;45430;-73
2022/09/13 09:13:49;;;;;;;;;1.00;1.00;;;;;;;;5078356;28;45391;-72
2022/09/13 09:16:26;;;;;;;;;1.67;1.67;;;;;;;;5078292;28;45478;-72
2022/09/13 09:18:53;;;;;;;;;4.33;1.00;;;;;;;;5078464;28;45387;-72
2022/09/13 09:21:19;;;;;;;;;2.33;2.33;;;;;;;;5078205;28;46308;-72
2022/09/13 09:23:47;;;;;;;;;4.00;2.00;;;;;;;;5078101;28;45261;-72
2022/09/13 09:26:12;;;;;;;;;0.33;0.33;;;;;;;;5078768;28;45438;-72
2022/09/13 09:28:37;;;;;;;;;1.33;1.33;;;;;;;;5078367;28;45332;-72
2022/09/13 09:31:05;;;;;;;;;1.00;1.00;;;;;;;;5077911;27;46110;-72
2022/09/13 09:33:49;;;;;;;;;2.00;2.00;;;;;;;;5078412;28;45343;-72
2022/09/13 09:36:17;;;;;;;;;1.33;1.33;;;;;;;;5078267;28;45534;-72
2022/09/13 09:38:43;;;;;;;;;2.33;2.33;;;;;;;;5078198;28;45520;-72
2022/09/13 09:41:28;;;;;;;;;2.33;2.00;;;;;;;;5077831;28;45305;-72
2022/09/13 09:43:54;;;;;;;;;1.00;1.00;;;;;;;;5077840;28;45516;-73
2022/09/13 09:46:21;;;;;;;;;1.00;1.00;;;;;;;;5078099;28;45231;-72
2022/09/13 09:48:52;;;;;;;;;1.00;1.00;;;;;;;;5078269;27;45394;-72
2022/09/13 09:51:19;;;;;;;;;2.00;2.00;;;;;;;;5077764;28;46147;-72
2022/09/13 09:53:46;;;;;;;;;2.00;2.00;;;;;;;;5077899;28;45404;-72
2022/09/13 09:56:18;;;;;;;;;1.33;1.33;;;;;;;;5077902;27;45383;-72
2022/09/13 09:58:44;;;;;;;;;1.33;1.33;;;;;;;;5059565;28;45606;-72
2022/09/13 10:01:20;;;;;;;;;1.00;1.00;;;;;;;;5076890;28;46357;-72
2022/09/13 10:03:57;;;;;;;;;1.00;1.00;;;;;;;;5077728;27;45499;-72
2022/09/13 10:06:24;;;;;;;;;1.00;1.00;;;;;;;;5077438;27;45347;-72
2022/09/13 10:08:59;;;;;;;;;2.00;2.00;;;;;;;;5077716;28;45566;-72
2022/09/13 10:11:37;;;;;;;;;1.00;1.00;;;;;;;;5077490;28;47003;-72
2022/09/13 10:14:02;;;;;;;;;1.00;1.00;;;;;;;;5077639;28;45429;-72
2022/09/13 10:16:28;;;;;;;;;2.00;2.00;;;;;;;;5076513;28;45240;-72
2022/09/13 10:18:54;;;;;;;;;1.33;1.33;;;;;;;;5077014;28;45309;-72
2022/09/13 10:21:24;;;;;;;;;1.67;1.67;;;;;;;;5077475;28;45205;-72
2022/09/13 10:23:49;;;;;;;;;1.00;1.00;;;;;;;;5077281;28;45500;-72
2022/09/13 10:26:17;;;;;;;;;1.00;1.00;;;;;;;;5077537;28;45777;-72
2022/09/13 10:28:55;;;;;;;;;3.00;1.00;;;;;;;;5077058;28;45389;-72
2022/09/13 10:31:26;;;;;;;;;1.00;1.00;;;;;;;;5076902;28;45466;-72
2022/09/13 10:33:57;;;;;;;;;1.00;1.00;;;;;;;;5077048;28;45399;-72
2022/09/13 10:36:26;;;;;;;;;2.00;2.00;;;;;;;;5077413;28;45316;-72
2022/09/13 10:38:56;;;;;;;;;1.00;1.00;;;;;;;;5077011;28;45440;-73
2022/09/13 10:41:25;;;;;;;;;1.67;1.67;;;;;;;;5077158;27;45427;-73
2022/09/13 10:44:00;;;;;;;;;2.00;2.00;;;;;;;;5076806;28;45354;-72
2022/09/13 10:46:27;;;;;;;;;1.00;1.00;;;;;;;;5063782;28;45355;-72
2022/09/13 10:48:55;;;;;;;;;1.00;1.00;;;;;;;;5077222;28;45389;-72
2022/09/13 10:51:20;;;;;;;;;0.67;0.67;;;;;;;;5076685;28;46176;-72
2022/09/13 10:53:46;;;;;;;;;1.00;1.00;;;;;;;;5076768;28;45444;-72
2022/09/13 10:56:19;;;;;;;;;2.00;2.00;;;;;;;;5076844;27;45521;-72
2022/09/13 10:58:44;;;;;;;;;1.00;1.00;;;;;;;;5076848;28;45364;-72
2022/09/13 11:01:15;;;;;;;;;1.00;1.00;;;;;;;;5076475;28;46304;-72
2022/09/13 11:03:51;;;;;;;;;2.00;2.00;;;;;;;;5076697;27;45277;-72
2022/09/13 11:06:28;;;;;;;;;0.67;0.00;;;;;;;;5076694;28;45467;-70
2022/09/13 11:08:59;;;;;;;;;2.00;2.00;;;;;;;;5076711;28;45437;-73
2022/09/13 11:11:45;;;;;;;;;1.33;1.33;;;;;;;;5076580;28;46282;-70
2022/09/13 11:14:22;;;;;;;;;3.67;2.00;;;;;;;;4993720;28;45467;-72
2022/09/13 11:16:53;;;;;;;;;2.00;2.00;;;;;;;;4994031;28;45355;-72
2022/09/13 11:19:21;;;;;;;;;3.00;1.67;;;;;;;;4994254;28;45397;-72
2022/09/13 11:21:52;;;;;;;;;1.33;1.33;;;;;;;;4993888;28;47580;-72
2022/09/13 11:24:23;;;;;;;;;2.00;2.00;;;;;;;;4993947;28;45422;-73
2022/09/13 11:26:59;;;;;;;;;1.33;1.33;;;;;;;;4993992;28;45395;-72
2022/09/13 11:29:28;;;;;;;;;1.00;1.00;;;;;;;;4993820;28;45702;-72
2022/09/13 11:31:59;;;;;;;;;1.00;1.00;;;;;;;;4993798;28;47359;-72
2022/09/13 11:34:36;;;;;;;;;2.67;2.00;;;;;;;;4993832;28;45288;-72
2022/09/13 11:37:13;;;;;;;;;1.33;1.33;;;;;;;;4994238;28;45770;-72
2022/09/13 11:39:46;;;;;;;;;1.33;1.33;;;;;;;;4964809;28;45446;-72
2022/09/13 11:42:14;;;;;;;;;1.00;1.00;;;;;;;;4976931;28;47281;-72
2022/09/13 11:44:55;;;;;;;;;2.00;2.00;;;;;;;;4993569;28;45441;-72
2022/09/13 11:47:28;;;;;;;;;2.00;2.00;;;;;;;;4993740;28;45363;-72
2022/09/13 11:49:53;;;;;;;;;2.00;2.00;;;;;;;;4993617;28;45413;-72
2022/09/13 11:52:37;;;;;;;;;2.00;2.00;;;;;;;;5064042;28;47166;-72
2022/09/13 11:55:07;;;;;;;;;1.00;1.00;;;;;;;;5075926;27;45456;-72
2022/09/13 11:57:34;;;;;;;;;1.33;1.33;;;;;;;;5075691;28;45365;-72
2022/09/13 12:00:01;;;;;;;;;1.00;1.00;;;;;;;;5076038;28;45391;-72
2022/09/13 12:02:35;;;;;;;;;2.00;2.00;;;;;;;;5075350;28;46318;-72
2022/09/13 12:05:04;;;;;;;;;3.00;2.00;;;;;;;;5075698;28;45434;-72
2022/09/13 12:07:36;;;;;;;;;1.67;1.67;;;;;;;;5076007;28;45302;-72
2022/09/13 12:10:07;;;;;;;;;1.00;1.00;;;;;;;;5075511;28;45364;-73
2022/09/13 12:12:34;;;;;;;;;1.33;1.00;;;;;;;;5075296;28;45297;-72
2022/09/13 12:15:22;;;;;;;;;1.00;1.00;;;;;;;;5075445;28;45328;-72
2022/09/13 12:17:50;;;;;;;;;1.00;1.00;;;;;;;;5067082;28;45512;-72
2022/09/13 12:20:39;;;;;;;;;1.67;1.67;;;;;;;;5075630;28;45504;-73
2022/09/13 12:23:11;;;;;;;;;2.00;1.00;;;;;;;;5067207;28;46097;-73
2022/09/13 12:25:41;;;;;;;;;0.67;0.67;;;;;;;;5075364;28;45366;-72
2022/09/13 12:28:18;;;;;;;;;2.00;2.00;;;;;;;;5076001;27;45301;-72
2022/09/13 12:30:47;;;;;;;;;1.67;1.67;;;;;;;;5075756;28;45225;-72
2022/09/13 12:33:14;;;;;;;;;1.00;1.00;;;;;;;;5075501;28;47187;-72
2022/09/13 12:35:51;;;;;;;;;2.00;2.00;;;;;;;;5075427;28;45372;-73
2022/09/13 12:38:19;;;;;;;;;2.00;1.00;;;;;;;;5075462;27;45428;-72
2022/09/13 12:40:57;;;;;;;;;2.00;2.00;;;;;;;;5074199;28;45621;-72
2022/09/13 12:43:22;;;;;;;;;1.33;1.33;;;;;;;;5075460;28;46677;-72
2022/09/13 12:46:00;;;;;;;;;2.00;2.00;;;;;;;;5075266;28;45465;-72
2022/09/13 12:48:44;;;;;;;;;1.67;1.67;;;;;;;;5075520;28;45409;-72
2022/09/13 12:51:14;;;;;;;;;2.50;2.50;;;;;;;;5075263;28;45517;-72
2022/09/13 12:53:46;;;;;;;;;1.00;1.00;;;;;;;;5074995;28;46162;-72
2022/09/13 12:56:11;;;;;;;;;1.67;1.67;;;;;;;;5074588;27;45465;-72
2022/09/13 12:58:39;;;;;;;;;1.00;1.00;;;;;;;;5075134;28;45529;-72
2022/09/13 13:01:04;;;;;;;;;1.33;1.33;;;;;;;;5075126;28;45371;-72
2022/09/13 13:03:32;;;;;;;;;1.00;1.00;;;;;;;;5074972;28;46119;-72
2022/09/13 13:06:10;;;;;;;;;2.00;1.33;;;;;;;;5075043;28;45412;-72
2022/09/13 13:08:35;;;;;;;;;1.33;1.00;;;;;;;;5060703;28;45470;-72
2022/09/13 13:11:02;;;;;;;;;2.00;2.00;;;;;;;;5075137;28;45421;-72
2022/09/13 13:13:41;;;;;;;;;1.00;1.00;;;;;;;;5074907;28;46160;-72
2022/09/13 13:16:39;;;;;;;;;1.00;1.00;;;;;;;;5074809;28;45428;-72
2022/09/13 13:19:23;;;;;;;;;0.33;0.33;;;;;;;;4972673;28;45457;-72
2022/09/13 13:21:48;;;;;;;;;1.67;1.33;;;;;;;;4972820;28;45496;-72
2022/09/13 13:24:16;;;;;;;;;2.00;1.00;;;;;;;;4972580;28;45524;-73
2022/09/13 13:26:41;;;;;;;;;1.00;1.00;;;;;;;;4972633;28;45322;-72
2022/09/13 13:29:13;;;;;;;;;1.67;1.67;;;;;;;;4973100;28;45466;-72
2022/09/13 13:31:39;;;;;;;;;2.67;2.67;;;;;;;;4972885;28;45378;-72
2022/09/13 13:34:04;;;;;;;;;2.00;2.00;;;;;;;;4972638;28;46219;-72
2022/09/13 13:36:38;;;;;;;;;0.33;0.33;;;;;;;;4972625;28;45556;-72
2022/09/13 13:39:08;;;;;;;;;1.67;1.67;;;;;;;;4972249;28;45505;-72
2022/09/13 13:41:37;;;;;;;;;1.00;1.00;;;;;;;;4973015;28;45334;-72
2022/09/13 13:44:11;;;;;;;;;1.33;1.33;;;;;;;;4972509;28;46200;-72
2022/09/13 13:46:36;;;;;;;;;1.00;1.00;;;;;;;;4972692;28;45397;-72
2022/09/13 13:49:19;;;;;;;;;1.00;1.00;;;;;;;;4972413;28;45274;-72
2022/09/13 13:51:45;;;;;;;;;2.00;2.00;;;;;;;;4973398;28;45518;-72
2022/09/13 13:54:30;;;;;;;;;1.00;1.00;;;;;;;;5005235;28;45656;-72
2022/09/13 13:56:56;;;;;;;;;1.33;1.00;;;;;;;;5077843;27;45387;-71
2022/09/13 13:59:24;;;;;;;;;1.67;1.67;;;;;;;;5077768;28;45363;-72
2022/09/13 14:01:55;;;;;;;;;2.00;2.00;;;;;;;;5077648;28;45486;-72
2022/09/13 14:04:23;;;;;;;;;2.00;1.00;;;;;;;;5059395;28;46191;-72
2022/09/13 14:07:04;;;;;;;;;1.67;1.67;;;;;;;;5077495;28;45412;-72
2022/09/13 14:09:36;;;;;;;;;1.00;1.00;;;;;;;;5077754;28;45340;-72
2022/09/13 14:12:14;;;;;;;;;1.00;1.00;;;;;;;;5077705;28;45387;-72
2022/09/13 14:15:17;;;;;;;;;1.00;1.00;;;;;;;;5077462;28;45323;-72
2022/09/13 14:18:15;;;;;;;;;2.00;1.67;;;;;;;;5014934;28;45292;-72
2022/09/13 14:20:58;;;;;;;;;5.33;2.67;;;;;;;;4975055;28;45408;-72
2022/09/13 14:23:24;;;;;;;;;1.00;1.00;;;;;;;;4975548;28;45437;-72
2022/09/13 14:25:59;;;;;;;;;1.67;1.67;;;;;;;;4975082;28;47309;-72
2022/09/13 14:28:25;;;;;;;;;1.00;1.00;;;;;;;;4975435;28;45414;-72
2022/09/13 14:30:57;;;;;;;;;1.00;1.00;;;;;;;;4975304;28;45407;-72
2022/09/13 14:33:23;;;;;;;;;0.00;0.00;;;;;;;;4975361;28;45412;-72
2022/09/13 14:35:56;;;;;;;;;1.00;1.00;;;;;;;;4974273;28;46975;-72
2022/09/13 14:38:24;;;;;;;;;1.00;1.00;;;;;;;;4975227;28;45330;-72
2022/09/13 14:40:50;;;;;;;;;1.00;1.00;;;;;;;;4975209;28;45467;-72
2022/09/13 14:43:20;;;;;;;;;0.33;0.33;;;;;;;;4975253;28;45474;-72
2022/09/13 14:45:47;;;;;;;;;0.67;0.67;;;;;;;;4974853;28;46463;-72
2022/09/13 14:48:28;;;;;;;;;1.00;1.00;;;;;;;;4990556;28;45366;-72
2022/09/13 14:50:56;;;;;;;;;0.67;0.67;;;;;;;;5014371;28;45434;-72
2022/09/13 14:53:24;;;;;;;;;1.00;1.00;;;;;;;;5014692;28;45312;-72
2022/09/13 14:55:52;;;;;;;;;1.67;1.67;;;;;;;;5027324;28;46065;-72